Time;durP1;ratioP1;P1;durP2;ratioP2;P2;SDS_P1;SDS_P2;PMS_P1;PMS_P2;Temp;Humidity;BMP_temperature;BMP_pressure;BME280_temperature;BME280_humidity;BME280_pressure;Samples;Min_cycle;Max_cycle;Signal;HPM_P1;HPM_P2
2021/06/10 00:00:51;;;;;;;16.57;14.03;;;;;;;13.68;100.00;96728.09;5013260;28;20033;-77
2021/06/10 00:03:18;;;;;;;18.27;12.77;;;;;;;13.73;100.00;96730.25;5013248;28;20021;-77
2021/06/10 00:05:44;;;;;;;15.83;13.17;;;;;;;13.74;100.00;96722.16;5032780;28;20549;-77
2021/06/10 00:08:10;;;;;;;16.87;13.57;;;;;;;13.76;100.00;96722.00;5032537;28;20090;-77
2021/06/10 00:10:39;;;;;;;16.20;13.93;;;;;;;13.73;100.00;96722.34;5018812;28;20577;-77
2021/06/10 00:13:04;;;;;;;18.83;13.87;;;;;;;13.62;100.00;96719.03;5038526;28;20367;-77
2021/06/10 00:15:32;;;;;;;16.57;13.83;;;;;;;13.66;100.00;96722.19;4995950;28;20067;-78
2021/06/10 00:17:59;;;;;;;17.20;13.53;;;;;;;13.68;100.00;96720.16;5044700;28;20025;-77
2021/06/10 00:20:27;;;;;;;16.13;14.40;;;;;;;13.71;100.00;96726.94;5023337;28;20041;-78
2021/06/10 00:22:55;;;;;;;17.13;14.83;;;;;;;13.71;100.00;96726.94;5023917;28;20501;-77
2021/06/10 00:25:24;;;;;;;18.77;16.60;;;;;;;13.76;100.00;96724.66;5034495;28;20036;-78
2021/06/10 00:27:50;;;;;;;21.07;18.20;;;;;;;13.81;100.00;96717.84;5019823;28;20067;-77
2021/06/10 00:30:17;;;;;;;21.97;19.27;;;;;;;13.87;100.00;96726.94;5037065;28;20029;-77
2021/06/10 00:32:45;;;;;;;20.50;18.27;;;;;;;13.85;100.00;96723.66;5004047;28;20030;-77
2021/06/10 00:35:11;;;;;;;15.80;13.80;;;;;;;13.69;100.00;96732.41;5013382;28;20025;-77
2021/06/10 00:37:37;;;;;;;16.77;12.80;;;;;;;13.58;100.00;96732.72;5034171;28;20544;-76
2021/06/10 00:40:05;;;;;;;20.87;13.13;;;;;;;13.55;100.00;96728.63;5029351;28;20034;-77
2021/06/10 00:42:30;;;;;;;16.07;14.03;;;;;;;13.51;100.00;96732.56;5004323;28;20038;-77
2021/06/10 00:44:56;;;;;;;16.80;14.60;;;;;;;13.45;100.00;96722.69;5021573;28;20626;-77
2021/06/10 00:47:22;;;;;;;17.37;14.50;;;;;;;13.44;100.00;96732.41;5012950;28;20272;-77
2021/06/10 00:49:48;;;;;;;20.67;15.13;;;;;;;13.42;100.00;96734.41;5019827;28;20440;-77
2021/06/10 00:52:14;;;;;;;14.77;13.00;;;;;;;13.41;100.00;96731.91;5022271;28;20029;-79
2021/06/10 00:54:40;;;;;;;15.77;13.27;;;;;;;13.34;100.00;96725.63;5041061;28;20690;-79
2021/06/10 00:57:06;;;;;;;15.30;13.33;;;;;;;13.32;100.00;96723.16;5015526;28;20033;-77
2021/06/10 00:59:32;;;;;;;15.47;13.47;;;;;;;13.24;100.00;96727.56;5037271;28;20025;-81
2021/06/10 01:01:59;;;;;;;16.87;14.30;;;;;;;13.19;100.00;96722.78;5036902;28;20036;-77
2021/06/10 01:04:25;;;;;;;15.53;13.10;;;;;;;13.15;100.00;96724.13;4996923;28;20033;-77
2021/06/10 01:07:06;;;;;;;17.27;13.60;;;;;;;13.15;100.00;96734.69;5014613;28;20118;-77
2021/06/10 01:09:52;;;;;;;15.97;12.97;;;;;;;13.15;100.00;96730.22;5025381;28;20558;-80
2021/06/10 01:12:40;;;;;;;16.57;13.60;;;;;;;13.12;100.00;96738.47;5015906;28;20033;-77
2021/06/10 01:15:11;;;;;;;18.80;14.97;;;;;;;13.12;100.00;96732.38;5005125;28;20033;-77
2021/06/10 01:17:46;;;;;;;17.40;14.23;;;;;;;13.03;100.00;96742.06;5022558;28;20037;-77
2021/06/10 01:20:14;;;;;;;16.17;13.80;;;;;;;13.08;100.00;96741.59;5033040;28;20099;-77
2021/06/10 01:22:46;;;;;;;15.83;12.60;;;;;;;13.04;100.00;96749.00;5015487;28;20032;-77
2021/06/10 01:25:31;;;;;;;18.73;13.77;;;;;;;13.04;100.00;96742.88;5017672;28;20029;-77
2021/06/10 01:28:00;;;;;;;16.20;13.40;;;;;;;13.01;100.00;96745.84;5012901;28;20034;-77
2021/06/10 01:30:29;;;;;;;15.17;13.33;;;;;;;13.03;100.00;96739.44;5022757;28;20029;-77
2021/06/10 01:32:59;;;;;;;14.80;12.70;;;;;;;13.05;100.00;96732.19;5018913;28;20033;-77
2021/06/10 01:35:27;;;;;;;16.33;12.93;;;;;;;13.05;100.00;96737.47;5006389;28;20032;-77
2021/06/10 01:37:56;;;;;;;15.70;13.13;;;;;;;13.04;100.00;96730.50;5022204;28;20124;-78
2021/06/10 01:40:24;;;;;;;19.57;14.93;;;;;;;13.06;100.00;96738.28;5032835;28;20025;-76
2021/06/10 01:42:51;;;;;;;15.33;13.10;;;;;;;13.10;100.00;96734.31;5031700;28;20065;-77
2021/06/10 01:45:17;;;;;;;20.00;13.60;;;;;;;13.03;100.00;96728.88;5011836;28;20021;-77
2021/06/10 01:47:46;;;;;;;18.97;14.53;;;;;;;13.00;100.00;96731.00;5029846;28;20124;-79
2021/06/10 01:50:14;;;;;;;17.63;14.77;;;;;;;12.92;100.00;96730.00;5005633;28;20021;-77
2021/06/10 01:52:41;;;;;;;18.00;15.00;;;;;;;13.06;100.00;96728.53;5011932;28;20034;-79
2021/06/10 01:55:10;;;;;;;18.23;15.97;;;;;;;13.11;100.00;96723.63;4997359;28;20036;-77
2021/06/10 01:57:36;;;;;;;21.97;17.83;;;;;;;13.17;100.00;96720.31;5003248;28;20069;-78
2021/06/10 02:00:07;;;;;;;21.63;18.20;;;;;;;13.19;100.00;96718.34;4993712;28;20061;-76
2021/06/10 02:02:35;;;;;;;26.40;20.10;;;;;;;13.24;100.00;96720.50;4996917;28;20071;-77
2021/06/10 02:05:02;;;;;;;25.87;20.77;;;;;;;13.27;100.00;96711.44;5032054;28;20478;-77
2021/06/10 02:07:29;;;;;;;28.67;21.57;;;;;;;13.32;100.00;96715.25;5030490;28;20036;-77
2021/06/10 02:09:56;;;;;;;25.40;21.53;;;;;;;13.36;100.00;96715.75;5035995;28;20036;-77
2021/06/10 02:12:22;;;;;;;29.07;22.40;;;;;;;13.40;100.00;96709.13;5005649;28;20032;-79
2021/06/10 02:14:48;;;;;;;30.50;23.73;;;;;;;13.46;100.00;96710.28;5036728;28;20112;-77
2021/06/10 02:17:17;;;;;;;53.97;27.20;;;;;;;13.47;100.00;96710.13;5018385;28;20087;-77
2021/06/10 02:19:42;;;;;;;54.77;28.47;;;;;;;13.50;100.00;96704.50;5040079;28;20037;-79
2021/06/10 02:22:09;;;;;;;40.97;27.10;;;;;;;13.38;100.00;96704.03;5024993;28;20029;-77
2021/06/10 02:24:35;;;;;;;31.43;22.90;;;;;;;13.26;100.00;96707.97;5022165;28;20078;-81
2021/06/10 02:27:00;;;;;;;35.67;23.50;;;;;;;13.22;100.00;96711.91;5028168;28;20433;-80
2021/06/10 02:29:26;;;;;;;57.13;25.73;;;;;;;13.11;100.00;96699.84;5001187;28;20022;-77
2021/06/10 02:31:52;;;;;;;83.07;28.03;;;;;;;13.17;100.00;96707.09;5026260;28;20044;-77
2021/06/10 02:34:18;;;;;;;58.87;26.10;;;;;;;13.18;100.00;96710.59;5008260;28;20021;-77
2021/06/10 02:36:47;;;;;;;88.23;28.80;;;;;;;13.17;100.00;96709.72;5014245;28;20037;-77
2021/06/10 02:39:15;;;;;;;55.67;27.00;;;;;;;13.19;100.00;96709.59;5005286;28;20036;-77
2021/06/10 02:41:49;;;;;;;59.47;28.03;;;;;;;13.17;100.00;96704.44;5006586;28;20040;-78
2021/06/10 02:44:15;;;;;;;86.27;29.67;;;;;;;13.17;100.00;96707.09;4997576;28;20038;-77
2021/06/10 02:46:41;;;;;;;34.13;27.00;;;;;;;13.28;100.00;96706.00;4996479;28;20079;-76
2021/06/10 02:49:10;;;;;;;34.20;27.77;;;;;;;13.32;100.00;96704.69;5016061;28;20184;-77
2021/06/10 02:51:37;;;;;;;30.70;24.50;;;;;;;13.25;100.00;96706.34;5024299;28;20025;-80
2021/06/10 02:54:08;;;;;;;30.37;23.63;;;;;;;13.32;100.00;96709.13;5019705;28;20033;-77
2021/06/10 02:56:35;;;;;;;29.70;23.57;;;;;;;13.37;100.00;96715.56;5021776;28;20686;-77
2021/06/10 02:59:04;;;;;;;29.80;23.43;;;;;;;13.35;100.00;96707.00;5014719;28;20029;-77
2021/06/10 03:01:35;;;;;;;27.77;23.70;;;;;;;13.32;100.00;96696.75;4999751;28;20056;-77
2021/06/10 03:04:01;;;;;;;32.17;22.50;;;;;;;13.35;100.00;96704.34;5012804;28;20460;-77
2021/06/10 03:06:27;;;;;;;31.90;23.40;;;;;;;13.39;100.00;96708.31;5047200;28;20111;-77
2021/06/10 03:08:54;;;;;;;29.93;24.60;;;;;;;13.42;100.00;96707.97;5015081;28;20763;-78
2021/06/10 03:11:24;;;;;;;27.63;23.13;;;;;;;13.40;100.00;96699.38;5019676;28;20025;-77
2021/06/10 03:13:51;;;;;;;26.83;23.13;;;;;;;13.39;100.00;96705.66;5050155;28;20033;-77
2021/06/10 03:16:18;;;;;;;27.70;23.03;;;;;;;13.32;100.00;96699.41;4992081;28;20033;-78
2021/06/10 03:18:44;;;;;;;25.73;21.97;;;;;;;13.33;100.00;96698.41;5017790;28;20063;-77
2021/06/10 03:21:10;;;;;;;53.37;25.80;;;;;;;13.35;100.00;96695.59;5010033;28;20086;-77
2021/06/10 03:23:36;;;;;;;45.50;26.87;;;;;;;13.31;100.00;96703.03;5032164;28;20079;-76
2021/06/10 03:26:04;;;;;;;50.20;27.80;;;;;;;13.31;100.00;96702.19;5014111;28;20025;-77
2021/06/10 03:28:30;;;;;;;33.23;25.83;;;;;;;13.30;100.00;96697.91;5004965;28;20118;-77
2021/06/10 03:30:56;;;;;;;30.67;25.30;;;;;;;13.29;100.00;96697.06;5019019;28;20029;-78
2021/06/10 03:33:23;;;;;;;31.00;25.60;;;;;;;13.28;100.00;96705.16;5014845;28;20029;-76
2021/06/10 03:35:51;;;;;;;38.00;26.63;;;;;;;13.23;100.00;96708.25;5020280;28;20037;-78
2021/06/10 03:38:18;;;;;;;28.60;22.53;;;;;;;13.20;100.00;96709.41;5001951;28;20034;-78
2021/06/10 03:40:47;;;;;;;25.57;20.93;;;;;;;13.18;100.00;96705.31;5004102;28;20056;-77
2021/06/10 03:43:14;;;;;;;22.33;19.60;;;;;;;13.10;100.00;96702.63;5009083;28;20040;-77
2021/06/10 03:45:40;;;;;;;23.67;19.43;;;;;;;13.04;100.00;96703.28;5014742;28;20049;-77
2021/06/10 03:48:09;;;;;;;22.07;18.50;;;;;;;13.09;100.00;96711.56;5020163;28;20615;-77
2021/06/10 03:50:36;;;;;;;22.27;19.07;;;;;;;13.09;100.00;96711.56;5012560;28;20107;-77
2021/06/10 03:53:05;;;;;;;22.20;19.27;;;;;;;13.13;100.00;96704.97;5030303;28;20040;-76
2021/06/10 03:55:30;;;;;;;23.70;19.73;;;;;;;13.14;100.00;96710.06;5020343;28;20025;-77
2021/06/10 03:57:56;;;;;;;22.80;18.97;;;;;;;13.17;100.00;96703.63;5013998;28;20029;-77
2021/06/10 04:00:22;;;;;;;21.50;19.03;;;;;;;13.15;100.00;96705.63;4996899;28;20072;-77
2021/06/10 04:02:48;;;;;;;22.57;19.00;;;;;;;13.09;100.00;96698.34;5002159;28;20051;-78
2021/06/10 04:05:15;;;;;;;22.30;18.00;;;;;;;13.16;100.00;96709.91;5005362;28;20029;-77
2021/06/10 04:07:40;;;;;;;22.27;18.70;;;;;;;13.21;100.00;96703.16;5015093;28;20033;-77
2021/06/10 04:10:07;;;;;;;23.10;18.40;;;;;;;13.22;100.00;96701.34;5015052;28;20505;-78
2021/06/10 04:12:33;;;;;;;19.73;17.63;;;;;;;13.24;100.00;96702.00;5002422;28;20498;-78
2021/06/10 04:14:59;;;;;;;52.20;44.73;;;;;;;13.30;100.00;96703.19;5018169;28;20131;-77
2021/06/10 04:17:24;;;;;;;38.53;31.30;;;;;;;13.34;100.00;96701.84;5038893;28;20124;-79
2021/06/10 04:19:50;;;;;;;23.47;20.30;;;;;;;13.36;100.00;96703.34;5008368;28;20371;-78
2021/06/10 04:22:16;;;;;;;20.77;17.67;;;;;;;13.30;100.00;96697.91;5018669;28;20462;-81
2021/06/10 04:24:42;;;;;;;27.17;20.00;;;;;;;13.23;100.00;96702.97;5018778;28;20032;-77
2021/06/10 04:27:08;;;;;;;26.03;19.77;;;;;;;13.16;100.00;96699.34;5014580;28;20036;-76
2021/06/10 04:29:35;;;;;;;25.27;19.67;;;;;;;13.21;100.00;96702.31;5018729;28;20540;-76
2021/06/10 04:32:01;;;;;;;26.07;18.37;;;;;;;13.29;100.00;96704.19;5013891;28;20033;-76
2021/06/10 04:34:27;;;;;;;24.13;18.23;;;;;;;13.36;100.00;96702.53;5012035;28;20795;-76
2021/06/10 04:36:53;;;;;;;25.03;19.67;;;;;;;13.33;100.00;96693.09;5011562;28;20116;-77
2021/06/10 04:39:19;;;;;;;26.17;21.07;;;;;;;13.24;100.00;96694.09;5038334;28;20029;-76
2021/06/10 04:41:45;;;;;;;25.67;21.53;;;;;;;13.21;100.00;96695.25;5020817;28;20091;-78
2021/06/10 04:44:11;;;;;;;25.90;21.37;;;;;;;13.22;100.00;96693.41;5010806;28;20030;-76
2021/06/10 04:46:37;;;;;;;24.63;21.17;;;;;;;13.19;100.00;96694.56;5015104;28;20147;-76
2021/06/10 04:49:03;;;;;;;21.17;18.10;;;;;;;13.18;100.00;96703.47;5012209;28;20053;-76
2021/06/10 04:51:29;;;;;;;25.30;20.47;;;;;;;13.27;100.00;96701.69;5020062;28;20033;-76
2021/06/10 04:53:55;;;;;;;26.50;20.30;;;;;;;13.49;100.00;96697.56;5001911;28;20025;-76
2021/06/10 04:56:22;;;;;;;28.17;22.30;;;;;;;13.70;100.00;96693.59;5028111;28;20062;-76
2021/06/10 04:58:48;;;;;;;24.00;19.87;;;;;;;13.86;100.00;96699.69;4996191;28;20577;-78
2021/06/10 05:01:14;;;;;;;21.47;19.17;;;;;;;14.11;100.00;96689.84;5012226;28;20112;-77
2021/06/10 05:03:42;;;;;;;23.00;20.00;;;;;;;14.34;100.00;96692.59;5006572;28;20205;-77
2021/06/10 05:06:08;;;;;;;23.87;19.57;;;;;;;14.49;100.00;96694.53;4980171;28;20062;-76
2021/06/10 05:08:34;;;;;;;21.97;18.47;;;;;;;14.71;99.88;96696.41;5009946;28;20146;-78
2021/06/10 05:11:00;;;;;;;22.73;18.03;;;;;;;14.90;98.39;96689.03;5013741;28;20073;-77
2021/06/10 05:13:26;;;;;;;21.57;19.27;;;;;;;15.02;98.28;96693.78;5027611;28;20071;-76
2021/06/10 05:15:52;;;;;;;22.33;19.00;;;;;;;15.13;99.04;96684.59;5020061;28;20033;-77
2021/06/10 05:18:17;;;;;;;22.30;19.90;;;;;;;15.33;98.86;96688.41;5037351;28;20493;-77
2021/06/10 05:20:44;;;;;;;20.20;17.87;;;;;;;15.55;98.27;96688.53;5034969;28;20124;-77
2021/06/10 05:23:10;;;;;;;24.30;19.33;;;;;;;15.71;97.28;96684.97;5011553;28;20522;-77
2021/06/10 05:25:38;;;;;;;20.50;17.02;;;;;;;15.89;95.29;96684.63;5049762;28;20035;-78
2021/06/10 05:28:04;;;;;;;16.98;13.95;;;;;;;16.05;94.31;96686.28;4993441;28;20037;-77
2021/06/10 05:30:30;;;;;;;20.00;13.57;;;;;;;16.26;93.71;96686.38;5049440;28;20456;-76
2021/06/10 05:32:55;;;;;;;17.55;13.98;;;;;;;16.23;92.66;96687.56;5042423;28;20027;-76
2021/06/10 05:35:22;;;;;;;14.48;11.48;;;;;;;16.52;91.17;96693.84;5020906;28;20040;-77
2021/06/10 05:37:48;;;;;;;17.25;13.73;;;;;;;16.84;89.71;96687.34;5014124;28;20026;-77
2021/06/10 05:40:14;;;;;;;16.15;12.00;;;;;;;17.01;88.69;96687.91;5022302;28;20083;-77
2021/06/10 05:42:40;;;;;;;16.35;14.65;;;;;;;17.25;89.26;96684.06;5029550;28;20022;-77
2021/06/10 05:45:08;;;;;;;17.52;15.45;;;;;;;17.34;89.36;96690.91;5005297;28;20033;-77
2021/06/10 05:47:35;;;;;;;19.38;17.10;;;;;;;17.34;89.31;96684.78;5021247;28;20047;-78
2021/06/10 05:50:01;;;;;;;24.90;17.60;;;;;;;17.51;87.98;96688.00;5044005;28;20036;-77
2021/06/10 05:52:27;;;;;;;18.50;16.50;;;;;;;17.42;89.33;96684.63;5010437;28;20075;-77
2021/06/10 05:54:53;;;;;;;18.65;16.63;;;;;;;17.63;87.85;96687.25;5033777;28;20037;-77
2021/06/10 05:57:19;;;;;;;18.73;16.00;;;;;;;17.66;87.04;96692.19;5034956;28;20457;-77
2021/06/10 05:59:47;;;;;;;18.15;16.25;;;;;;;18.02;86.62;96691.28;5025945;28;20064;-77
2021/06/10 06:02:16;;;;;;;17.48;15.63;;;;;;;18.07;86.07;96698.66;5001181;28;20064;-77
2021/06/10 06:04:43;;;;;;;18.35;15.98;;;;;;;18.36;85.48;96686.97;4996515;28;20064;-77
2021/06/10 06:07:09;;;;;;;17.27;15.48;;;;;;;18.55;83.03;96691.56;5024622;28;20022;-77
2021/06/10 06:09:36;;;;;;;16.08;14.27;;;;;;;18.78;82.14;96693.13;5016192;28;20367;-77
2021/06/10 06:12:06;;;;;;;17.90;15.75;;;;;;;18.84;81.72;96692.31;4997169;28;20030;-78
2021/06/10 06:14:34;;;;;;;18.05;16.15;;;;;;;19.00;81.40;96699.94;5008814;28;20036;-77
2021/06/10 06:17:05;;;;;;;17.60;15.48;;;;;;;19.01;82.37;96700.75;5026429;28;20659;-77
2021/06/10 06:19:34;;;;;;;16.33;14.68;;;;;;;19.77;79.50;96695.97;5016864;28;20764;-79
2021/06/10 06:22:02;;;;;;;16.67;14.90;;;;;;;19.83;78.21;96699.69;5014062;28;20056;-77
2021/06/10 06:24:30;;;;;;;17.45;15.38;;;;;;;19.90;78.03;96705.84;5023188;28;20822;-77
2021/06/10 06:26:57;;;;;;;17.85;14.18;;;;;;;20.14;77.42;96706.22;5027531;28;20149;-77
2021/06/10 06:29:23;;;;;;;16.67;14.93;;;;;;;20.16;77.17;96701.50;5021933;28;20039;-78
2021/06/10 06:31:49;;;;;;;17.42;15.63;;;;;;;20.28;78.16;96704.34;5017149;28;20044;-77
2021/06/10 06:34:14;;;;;;;16.88;15.10;;;;;;;20.46;76.21;96709.88;5029847;28;20021;-77
2021/06/10 06:36:40;;;;;;;16.52;14.82;;;;;;;20.66;77.01;96709.84;5015310;28;20034;-78
2021/06/10 06:39:06;;;;;;;15.38;13.75;;;;;;;21.20;72.84;96711.22;5011104;28;20035;-78
2021/06/10 06:41:32;;;;;;;16.77;15.05;;;;;;;21.08;73.58;96720.94;5015956;28;20042;-78
2021/06/10 06:43:58;;;;;;;16.17;14.57;;;;;;;21.49;72.62;96730.41;4994880;28;20033;-78
2021/06/10 06:46:24;;;;;;;13.80;12.40;;;;;;;21.78;70.49;96718.28;5012986;28;20154;-78
2021/06/10 06:48:50;;;;;;;15.75;14.15;;;;;;;21.92;69.40;96727.00;5020540;28;20025;-78
2021/06/10 06:51:17;;;;;;;16.33;14.63;;;;;;;21.71;71.26;96723.66;5005982;28;20103;-78
2021/06/10 06:53:44;;;;;;;14.93;13.32;;;;;;;22.10;71.14;96717.16;5023859;28;20044;-78
2021/06/10 06:56:13;;;;;;;15.63;13.95;;;;;;;22.30;69.29;96718.84;5016469;28;20502;-81
2021/06/10 06:58:43;;;;;;;14.48;12.85;;;;;;;22.33;67.44;96708.53;5024681;28;20032;-78
2021/06/10 07:01:09;;;;;;;15.88;14.00;;;;;;;22.92;65.74;96711.56;5001339;28;20041;-78
2021/06/10 07:03:35;;;;;;;15.35;13.75;;;;;;;22.87;65.31;96711.44;5042835;28;20452;-79
2021/06/10 07:06:01;;;;;;;14.95;13.45;;;;;;;23.06;63.21;96715.75;5018518;28;20084;-78
2021/06/10 07:08:31;;;;;;;15.07;13.50;;;;;;;23.57;62.82;96720.81;5020974;28;20029;-78
2021/06/10 07:10:57;;;;;;;13.57;12.18;;;;;;;24.21;60.23;96708.44;5022616;28;20075;-79
2021/06/10 07:13:23;;;;;;;15.13;13.57;;;;;;;24.48;59.80;96706.13;5011158;28;20049;-79
2021/06/10 07:15:49;;;;;;;13.98;12.48;;;;;;;24.32;59.04;96704.13;5014226;28;20029;-78
2021/06/10 07:18:16;;;;;;;14.32;12.82;;;;;;;24.13;56.55;96706.91;5012967;28;20028;-78
2021/06/10 07:20:42;;;;;;;13.23;11.93;;;;;;;24.81;56.43;96707.34;5023718;28;20040;-78
2021/06/10 07:23:08;;;;;;;16.58;12.77;;;;;;;23.76;60.33;96709.00;5023726;28;20025;-78
2021/06/10 07:25:33;;;;;;;14.57;12.77;;;;;;;24.69;57.14;96712.75;5003099;28;20048;-79
2021/06/10 07:27:59;;;;;;;15.00;13.30;;;;;;;25.38;55.58;96702.81;5003803;28;20029;-78
2021/06/10 07:30:25;;;;;;;15.77;14.05;;;;;;;25.20;57.44;96712.97;5024090;28;20493;-79
2021/06/10 07:32:50;;;;;;;15.52;14.02;;;;;;;24.59;57.49;96713.34;5009805;28;20021;-78
2021/06/10 07:35:21;;;;;;;16.38;14.35;;;;;;;25.30;56.39;96707.78;5020310;28;20486;-79
2021/06/10 07:37:48;;;;;;;16.45;14.85;;;;;;;24.74;60.41;96720.09;5026381;28;20029;-78
2021/06/10 07:40:15;;;;;;;15.43;13.73;;;;;;;25.04;57.11;96712.63;5005990;28;20402;-78
2021/06/10 07:42:41;;;;;;;15.43;13.90;;;;;;;25.20;57.90;96716.47;4999386;28;20034;-78
2021/06/10 07:45:08;;;;;;;16.60;15.00;;;;;;;25.04;57.50;96717.22;5002912;28;20851;-78
2021/06/10 07:47:33;;;;;;;15.65;14.05;;;;;;;25.84;55.29;96713.59;5002874;28;20041;-79
2021/06/10 07:49:59;;;;;;;15.40;13.85;;;;;;;25.88;55.10;96722.81;5006694;28;20025;-79
2021/06/10 07:52:25;;;;;;;16.38;13.73;;;;;;;25.95;54.54;96723.47;5019845;28;20478;-78
2021/06/10 07:54:50;;;;;;;14.20;12.75;;;;;;;26.90;52.36;96712.72;5003276;28;20387;-79
2021/06/10 07:57:16;;;;;;;15.63;14.02;;;;;;;26.89;52.94;96714.59;5000406;28;20124;-79
2021/06/10 07:59:42;;;;;;;15.30;13.77;;;;;;;26.67;52.27;96717.28;5015962;28;20033;-78
2021/06/10 08:02:10;;;;;;;15.00;13.50;;;;;;;26.61;52.68;96715.59;5020894;28;20041;-79
2021/06/10 08:04:36;;;;;;;13.68;12.25;;;;;;;27.24;52.45;96716.91;5023355;28;20017;-79
2021/06/10 08:07:02;;;;;;;13.73;12.23;;;;;;;27.24;50.94;96716.13;5004584;28;20041;-79
2021/06/10 08:09:32;;;;;;;12.77;11.20;;;;;;;28.18;49.30;96709.41;4989035;28;20109;-79
2021/06/10 08:11:58;;;;;;;13.65;12.25;;;;;;;27.02;52.14;96711.50;4999984;28;20032;-79
2021/06/10 08:14:24;;;;;;;13.75;11.40;;;;;;;26.30;51.67;96719.72;5001637;28;20569;-79
2021/06/10 08:16:49;;;;;;;13.13;11.80;;;;;;;26.87;49.60;96719.44;5015224;28;20133;-79
2021/06/10 08:19:15;;;;;;;12.38;11.18;;;;;;;27.64;48.22;96709.50;5002840;28;20049;-79
2021/06/10 08:21:43;;;;;;;15.05;13.13;;;;;;;27.34;50.07;96710.81;5009304;28;20121;-80
2021/06/10 08:24:09;;;;;;;14.73;13.25;;;;;;;26.85;51.88;96708.06;5007269;28;20025;-79
2021/06/10 08:26:35;;;;;;;14.82;12.45;;;;;;;29.11;44.43;96706.16;5024105;28;20029;-81
2021/06/10 08:29:00;;;;;;;12.25;10.95;;;;;;;28.78;46.71;96704.66;5041623;28;20444;-79
2021/06/10 08:31:28;;;;;;;12.32;10.68;;;;;;;28.23;47.83;96712.13;5018704;28;20713;-80
2021/06/10 08:33:53;;;;;;;11.93;10.65;;;;;;;26.37;50.55;96714.97;5017023;28;20032;-80
2021/06/10 08:36:21;;;;;;;11.55;9.65;;;;;;;26.15;54.03;96719.47;5006671;28;20033;-81
2021/06/10 08:38:48;;;;;;;11.07;9.90;;;;;;;25.34;55.70;96714.31;5009644;28;20084;-79
2021/06/10 08:41:15;;;;;;;10.80;9.10;;;;;;;26.16;53.69;96713.03;5015147;28;20057;-79
2021/06/10 08:43:42;;;;;;;10.38;9.27;;;;;;;27.03;50.01;96705.06;5023615;28;20031;-79
2021/06/10 08:46:10;;;;;;;12.27;10.55;;;;;;;26.59;50.21;96708.81;5019265;28;20036;-80
2021/06/10 08:48:39;;;;;;;12.57;9.55;;;;;;;25.56;54.26;96714.44;5011541;28;20425;-79
2021/06/10 08:51:07;;;;;;;11.43;9.30;;;;;;;24.85;53.03;96712.00;5021652;28;20050;-80
2021/06/10 08:53:32;;;;;;;9.68;7.30;;;;;;;24.50;53.43;96705.88;5008156;28;20025;-79
2021/06/10 08:55:59;;;;;;;6.75;4.93;;;;;;;26.11;46.08;96711.06;5020138;28;20033;-79
2021/06/10 08:58:26;;;;;;;7.97;3.78;;;;;;;26.88;40.59;96695.97;5009314;28;20026;-79
2021/06/10 09:00:53;;;;;;;9.80;7.28;;;;;;;27.16;43.16;96692.25;5014530;28;20025;-79
2021/06/10 09:03:29;;;;;;;7.82;6.75;;;;;;;27.39;44.89;96694.66;5028285;28;20101;-79
2021/06/10 09:06:09;;;;;;;7.82;6.45;;;;;;;29.07;41.58;96688.78;5030983;28;20037;-79
2021/06/10 09:08:38;;;;;;;9.20;7.82;;;;;;;29.30;40.88;96699.16;5014903;28;20119;-79
2021/06/10 09:11:10;;;;;;;9.50;7.60;;;;;;;31.09;37.75;96693.59;5025759;28;20390;-79
2021/06/10 09:13:42;;;;;;;9.75;7.43;;;;;;;29.77;39.43;96703.59;5032191;28;20031;-82
2021/06/10 09:16:16;;;;;;;12.15;10.95;;;;;;;30.10;39.69;96698.69;5013546;28;20025;-79
2021/06/10 09:19:08;;;;;;;10.05;8.23;;;;;;;30.29;38.92;96697.09;5007358;28;20038;-79
2021/06/10 09:21:40;;;;;;;6.78;5.82;;;;;;;30.51;36.26;96695.94;5033341;28;20033;-79
2021/06/10 09:24:23;;;;;;;7.43;5.65;;;;;;;31.57;35.45;96693.88;5007994;28;20128;-80
2021/06/10 09:27:14;;;;;;;7.55;6.72;;;;;;;30.95;36.18;96695.28;4996485;28;20132;-82
2021/06/10 09:29:48;;;;;;;7.95;6.30;;;;;;;31.66;34.86;96703.06;4992493;28;20029;-80
2021/06/10 09:32:27;;;;;;;6.93;5.55;;;;;;;31.49;34.72;96694.50;5008114;28;20094;-80
2021/06/10 09:35:05;;;;;;;6.72;6.00;;;;;;;31.48;34.01;96692.84;5023237;28;20037;-83
2021/06/10 09:37:39;;;;;;;6.75;5.80;;;;;;;31.80;33.91;96692.34;5023740;28;20084;-80
2021/06/10 09:40:19;;;;;;;7.50;5.40;;;;;;;31.65;32.37;96693.25;4996250;28;20045;-79
2021/06/10 09:42:45;;;;;;;7.25;6.32;;;;;;;31.45;35.19;96687.97;5020765;28;20060;-80
2021/06/10 09:45:19;;;;;;;7.10;5.90;;;;;;;32.05;34.72;96691.34;5006759;28;20387;-80
2021/06/10 09:47:52;;;;;;;7.03;5.30;;;;;;;31.45;35.17;96693.41;5015655;28;20069;-80
2021/06/10 09:50:29;;;;;;;6.72;5.55;;;;;;;30.77;35.54;96691.28;5031496;28;20086;-80
2021/06/10 09:53:13;;;;;;;7.95;6.15;;;;;;;30.13;36.14;96695.44;5007206;28;20049;-80
2021/06/10 09:56:02;;;;;;;6.20;5.35;;;;;;;30.30;34.79;96690.56;5018795;28;20037;-80
2021/06/10 09:58:33;;;;;;;6.60;5.07;;;;;;;31.46;33.76;96681.47;5024967;28;20053;-79
2021/06/10 10:01:04;;;;;;;6.70;5.90;;;;;;;29.68;37.03;96686.25;5028575;28;20033;-80
2021/06/10 10:03:40;;;;;;;6.20;4.93;;;;;;;30.23;35.30;96676.47;5008562;28;20065;-80
2021/06/10 10:06:24;;;;;;;6.53;5.47;;;;;;;29.42;36.92;96685.38;5032966;28;20570;-81
2021/06/10 10:08:52;;;;;;;6.35;5.25;;;;;;;30.16;39.24;96684.06;5027337;28;20033;-80
2021/06/10 10:11:19;;;;;;;8.77;5.25;;;;;;;29.74;39.05;96682.44;5019652;28;20034;-80
2021/06/10 10:13:47;;;;;;;7.15;5.40;;;;;;;29.42;39.41;96677.25;5018300;28;20028;-80
2021/06/10 10:16:13;;;;;;;6.93;6.07;;;;;;;30.04;36.89;96678.09;5020959;28;20021;-80
2021/06/10 10:18:39;;;;;;;6.78;5.90;;;;;;;30.00;36.32;96675.13;5011749;28;20047;-80
2021/06/10 10:21:06;;;;;;;6.20;4.95;;;;;;;29.89;39.21;96669.97;5019802;28;20426;-80
2021/06/10 10:23:34;;;;;;;7.57;5.35;;;;;;;28.95;41.21;96664.66;5000080;28;20512;-80
2021/06/10 10:26:06;;;;;;;7.35;6.53;;;;;;;28.08;40.26;96676.91;5031036;28;20053;-80
2021/06/10 10:28:34;;;;;;;10.88;9.70;;;;;;;28.40;40.58;96663.31;5005452;28;20160;-80
2021/06/10 10:31:01;;;;;;;8.15;5.63;;;;;;;27.48;43.17;96670.69;5022705;28;20021;-80
2021/06/10 10:33:27;;;;;;;7.88;5.65;;;;;;;26.41;44.09;96664.84;5018343;28;20488;-81
2021/06/10 10:35:57;;;;;;;6.85;5.90;;;;;;;26.71;44.14;96666.34;5030310;28;20104;-80
2021/06/10 10:38:35;;;;;;;9.13;6.47;;;;;;;26.31;45.08;96670.09;5004741;28;20129;-81
2021/06/10 10:41:04;;;;;;;7.95;6.80;;;;;;;26.33;45.08;96657.19;5024878;28;20617;-80
2021/06/10 10:43:31;;;;;;;7.40;6.47;;;;;;;26.29;45.55;96661.44;5023891;28;20064;-80
2021/06/10 10:46:18;;;;;;;8.80;6.65;;;;;;;26.32;44.94;96660.94;5022797;28;20038;-80
2021/06/10 10:48:49;;;;;;;7.22;6.10;;;;;;;25.90;45.85;96658.75;5020569;28;20033;-81
2021/06/10 10:51:22;;;;;;;6.43;5.47;;;;;;;26.46;45.57;96653.31;4998610;28;20041;-79
2021/06/10 10:53:54;;;;;;;6.60;5.65;;;;;;;27.00;44.10;96650.75;5013790;28;20025;-81
2021/06/10 10:56:40;;;;;;;10.03;6.07;;;;;;;26.53;49.42;96654.00;5009645;28;20034;-79
2021/06/10 10:59:20;;;;;;;10.80;7.32;;;;;;;27.01;53.19;96663.19;5026011;28;20033;-80
2021/06/10 11:02:08;;;;;;;13.55;8.57;;;;;;;25.64;60.42;96658.28;5019136;28;20037;-79
2021/06/10 11:04:51;;;;;;;12.07;8.65;;;;;;;24.57;62.26;96667.03;5024231;28;20041;-79
2021/06/10 11:07:35;;;;;;;11.48;8.82;;;;;;;24.14;65.18;96665.56;5007527;28;20060;-80
2021/06/10 11:10:11;;;;;;;11.57;8.73;;;;;;;23.87;66.40;96667.06;4993569;28;20458;-79
2021/06/10 11:12:43;;;;;;;12.75;9.50;;;;;;;22.80;69.50;96671.28;5009180;28;20047;-79
2021/06/10 11:15:37;;;;;;;11.43;10.23;;;;;;;22.92;73.68;96670.53;5010435;28;20055;-81
2021/06/10 11:18:07;;;;;;;11.45;9.60;;;;;;;23.80;71.14;96669.06;5020130;28;20039;-79
2021/06/10 11:20:41;;;;;;;10.32;8.48;;;;;;;24.46;71.59;96671.41;5007254;28;20033;-79
2021/06/10 11:23:17;;;;;;;10.80;7.90;;;;;;;25.50;67.19;96675.84;5005254;28;20502;-79